createdAt,value
2022-07-30T00:02:11.495Z,100782.69
2022-07-30T00:04:39.353Z,100779.22
2022-07-30T00:07:07.334Z,100787.53
2022-07-30T00:09:36.283Z,100785.81
2022-07-30T00:12:04.837Z,100793.19
2022-07-30T00:14:34.890Z,100790.56
2022-07-30T00:17:03.323Z,100797.09
2022-07-30T00:19:33.133Z,100794.59
2022-07-30T00:22:01.016Z,100794.81
2022-07-30T00:24:28.968Z,100799.50
2022-07-30T00:26:56.867Z,100800.84
2022-07-30T00:29:25.636Z,100806.47
2022-07-30T00:31:53.524Z,100807.72
2022-07-30T00:34:21.328Z,100802.69
2022-07-30T00:36:50.590Z,100797.66
2022-07-30T00:39:18.432Z,100798.09
2022-07-30T00:42:00.557Z,100802.09
2022-07-30T00:44:29.398Z,100792.59
2022-07-30T00:46:58.208Z,100801.81
2022-07-30T00:49:27.085Z,100802.06
2022-07-30T00:51:56.418Z,100812.09
2022-07-30T00:54:24.238Z,100807.78
2022-07-30T00:56:52.243Z,100805.22
2022-07-30T00:59:20.178Z,100803.56
2022-07-30T01:01:48.153Z,100807.31
2022-07-30T01:04:16.018Z,100803.09
2022-07-30T01:06:43.845Z,100799.78
2022-07-30T01:09:13.273Z,100793.78
2022-07-30T01:11:42.673Z,100799.53
2022-07-30T01:14:10.985Z,100813.53
2022-07-30T01:16:41.416Z,100802.22
2022-07-30T01:19:32.382Z,100816.75
2022-07-30T01:22:09.361Z,100816.88
2022-07-30T01:24:43.977Z,100814.28
2022-07-30T01:27:19.644Z,100819.72
2022-07-30T01:29:49.223Z,100827.13
2022-07-30T01:32:18.862Z,100829.16
2022-07-30T01:34:48.011Z,100822.22
2022-07-30T01:37:17.916Z,100823.50
2022-07-30T01:39:49.608Z,100819.47
2022-07-30T01:42:20.393Z,100830.47
2022-07-30T01:44:50.076Z,100825.19
2022-07-30T01:47:20.402Z,100830.88
2022-07-30T01:49:50.463Z,100832.13
2022-07-30T01:52:19.195Z,100836.03
2022-07-30T01:54:49.666Z,100838.06
2022-07-30T01:57:20.801Z,100838.19
2022-07-30T01:59:51.269Z,100839.28
2022-07-30T02:02:20.656Z,100841.28
2022-07-30T02:04:48.709Z,100842.47
2022-07-30T02:07:21.072Z,100836.41
2022-07-30T02:09:54.830Z,100834.91
2022-07-30T02:12:29.099Z,100833.44
2022-07-30T02:15:05.071Z,100828.28
2022-07-30T02:17:45.065Z,100823.16
2022-07-30T02:20:15.792Z,100822.69
2022-07-30T02:22:48.167Z,100818.53
2022-07-30T02:25:19.785Z,100829.44
2022-07-30T02:27:53.542Z,100840.31
2022-07-30T02:30:24.514Z,100836.91
2022-07-30T02:32:52.681Z,100836.94
2022-07-30T02:35:25.093Z,100838.78
2022-07-30T02:37:55.678Z,100843.28
2022-07-30T02:40:25.093Z,100844.19
2022-07-30T02:42:55.066Z,100852.31
2022-07-30T02:45:26.596Z,100853.28
2022-07-30T02:47:58.523Z,100852.31
2022-07-30T02:50:28.395Z,100855.13
2022-07-30T02:52:58.912Z,100858.97
2022-07-30T02:55:28.786Z,100855.66
2022-07-30T02:57:59.962Z,100853.16
2022-07-30T03:00:30.587Z,100862.13
2022-07-30T03:03:00.290Z,100867.56
2022-07-30T03:05:30.456Z,100870.31
2022-07-30T03:08:01.571Z,100868.47
2022-07-30T03:10:30.161Z,100874.81
2022-07-30T03:13:00.733Z,100883.88
2022-07-30T03:15:31.025Z,100868.66
2022-07-30T03:18:01.046Z,100876.72
2022-07-30T03:20:33.112Z,100871.34
2022-07-30T03:23:04.107Z,100870.47
2022-07-30T03:25:33.797Z,100873.22
2022-07-30T03:28:04.892Z,100869.69
2022-07-30T03:30:35.740Z,100867.06
2022-07-30T03:33:04.565Z,100869.78
2022-07-30T03:35:33.425Z,100870.72
2022-07-30T03:38:02.376Z,100880.59
2022-07-30T03:40:31.558Z,100874.50
2022-07-30T03:43:00.362Z,100880.84
2022-07-30T03:45:30.120Z,100880.88
2022-07-30T03:48:08.777Z,100878.31
2022-07-30T03:50:39.340Z,100884.75
2022-07-30T03:53:08.714Z,100882.16
2022-07-30T03:55:51.837Z,100882.31
2022-07-30T03:58:53.498Z,100883.31
2022-07-30T04:01:25.912Z,100882.53
2022-07-30T04:04:05.525Z,100889.72
2022-07-30T04:06:33.622Z,100891.59
2022-07-30T04:09:02.977Z,100891.63
2022-07-30T04:11:41.481Z,100890.81
2022-07-30T04:14:16.058Z,100889.03
2022-07-30T04:16:52.850Z,100892.63
2022-07-30T04:19:29.454Z,100889.16
2022-07-30T04:21:59.621Z,100894.66
2022-07-30T04:24:29.387Z,100907.28
2022-07-30T04:27:00.568Z,100907.41
2022-07-30T04:29:28.947Z,100906.44
2022-07-30T04:31:58.719Z,100908.28
2022-07-30T04:34:48.929Z,100903.72
2022-07-30T04:37:22.833Z,100909.06
2022-07-30T04:39:54.161Z,100911.69
2022-07-30T04:42:22.732Z,100911.75
2022-07-30T04:45:01.101Z,100911.75
2022-07-30T04:47:35.778Z,100907.19
2022-07-30T04:50:35.624Z,100912.56
2022-07-30T04:53:06.793Z,100911.66
2022-07-30T04:55:41.701Z,100899.00
2022-07-30T04:58:11.519Z,100904.28
2022-07-30T05:00:41.528Z,100914.03
2022-07-30T05:03:16.238Z,100902.38
2022-07-30T05:05:56.753Z,100901.56
2022-07-30T05:08:26.724Z,100902.44
2022-07-30T05:10:55.246Z,100918.56
2022-07-30T05:13:23.423Z,100920.38
2022-07-30T05:16:02.290Z,100923.06
2022-07-30T05:18:31.649Z,100922.16
2022-07-30T05:20:59.667Z,100920.41
2022-07-30T05:23:31.677Z,100913.31
2022-07-30T05:26:14.658Z,100892.72
2022-07-30T05:28:52.051Z,100894.41
2022-07-30T05:31:26.129Z,100898.97
2022-07-30T05:34:03.804Z,100903.50
2022-07-30T05:36:41.188Z,100899.09
2022-07-30T05:39:09.459Z,100909.00
2022-07-30T05:41:57.543Z,100911.75
2022-07-30T05:44:41.899Z,100917.13
2022-07-30T05:47:09.750Z,100920.66
2022-07-30T05:49:40.730Z,100930.50
2022-07-30T05:52:13.937Z,100931.34
2022-07-30T05:54:42.254Z,100934.84
2022-07-30T05:57:37.022Z,100938.44
2022-07-30T06:00:07.624Z,100922.31
2022-07-30T06:02:53.583Z,100925.91
2022-07-30T06:05:28.916Z,100923.22
2022-07-30T06:08:00.696Z,100926.66
2022-07-30T06:10:31.137Z,100931.97
2022-07-30T06:12:59.888Z,100934.66
2022-07-30T06:15:28.484Z,100924.75
2022-07-30T06:17:59.550Z,100931.91
2022-07-30T06:20:54.128Z,100921.06
2022-07-30T06:23:48.165Z,100920.06
2022-07-30T06:26:30.028Z,100910.22
2022-07-30T06:28:57.902Z,100910.31
2022-07-30T06:31:31.323Z,100902.28
2022-07-30T06:33:59.368Z,100910.41
2022-07-30T06:36:32.439Z,100906.88
2022-07-30T06:39:07.486Z,100899.75
2022-07-30T06:42:10.642Z,100899.69
2022-07-30T06:45:02.528Z,100907.75
2022-07-30T06:47:48.199Z,100923.84
2022-07-30T06:50:16.032Z,100948.03
2022-07-30T06:52:45.297Z,100969.56
2022-07-30T06:55:13.289Z,100994.56
2022-07-30T06:57:48.770Z,100984.63
2022-07-30T07:00:39.330Z,100975.63
2022-07-30T07:03:12.386Z,100959.47
2022-07-30T07:05:41.276Z,100949.59
2022-07-30T07:08:10.445Z,100945.09
2022-07-30T07:10:44.125Z,100943.34
2022-07-30T07:13:31.548Z,100927.25
2022-07-30T07:16:00.447Z,100904.94
2022-07-30T07:18:30.563Z,100903.16
2022-07-30T07:21:06.305Z,100908.63
2022-07-30T07:23:42.115Z,100904.25
2022-07-30T07:26:30.771Z,100892.72
2022-07-30T07:29:03.377Z,100882.06
2022-07-30T07:32:02.833Z,100886.53
2022-07-30T07:34:21.751Z,100889.28
2022-07-30T07:36:49.698Z,100898.31
2022-07-30T07:39:19.242Z,100904.53
2022-07-30T07:41:48.783Z,100901.88
2022-07-30T07:44:21.313Z,100887.53
2022-07-30T07:46:49.332Z,100900.13
2022-07-30T07:49:17.663Z,100888.47
2022-07-30T07:51:49.346Z,100886.78
2022-07-30T07:54:23.410Z,100890.38
2022-07-30T07:56:56.674Z,100896.72
2022-07-30T07:59:40.041Z,100881.47
2022-07-30T08:02:12.840Z,100889.50
2022-07-30T08:04:52.895Z,100905.59
2022-07-30T08:07:36.953Z,100914.50
2022-07-30T08:10:32.523Z,100926.97
2022-07-30T08:13:04.049Z,100935.00
2022-07-30T08:15:50.252Z,100942.00
2022-07-30T08:18:41.277Z,100940.91
2022-07-30T08:21:32.300Z,100948.81
2022-07-30T08:24:00.172Z,100951.41
2022-07-30T08:26:29.353Z,100954.78
2022-07-30T08:28:57.180Z,100959.13
2022-07-30T08:31:25.286Z,100950.94
2022-07-30T08:33:53.457Z,100957.13
2022-07-30T08:36:24.164Z,100950.81
2022-07-30T08:38:54.404Z,100951.56
2022-07-30T08:41:23.587Z,100955.97
2022-07-30T08:43:54.615Z,100953.28
2022-07-30T08:46:26.171Z,100956.84
2022-07-30T08:49:09.149Z,100955.88
2022-07-30T08:51:40.118Z,100962.09
2022-07-30T08:54:23.558Z,100970.94
2022-07-30T08:56:51.539Z,100966.41
2022-07-30T08:59:24.357Z,100977.09
2022-07-30T09:02:13.089Z,100978.88
2022-07-30T09:04:55.631Z,100982.31
2022-07-30T09:07:23.608Z,100982.25
2022-07-30T09:09:51.642Z,100994.66
2022-07-30T09:12:36.798Z,100993.56
2022-07-30T09:15:12.103Z,100994.41
2022-07-30T09:17:52.712Z,101000.56
2022-07-30T09:20:23.742Z,100999.63
2022-07-30T09:22:53.987Z,101003.19
2022-07-30T09:25:37.633Z,101007.59
2022-07-30T09:28:32.258Z,100998.63
2022-07-30T09:31:17.417Z,101001.25
2022-07-30T09:34:25.594Z,101000.16
2022-07-30T09:37:20.422Z,101000.88
2022-07-30T09:40:13.345Z,101005.09
2022-07-30T09:43:06.697Z,101006.69
2022-07-30T09:45:35.165Z,101013.75
2022-07-30T09:48:21.848Z,101007.25
2022-07-30T09:50:51.001Z,101022.34
2022-07-30T09:53:19.718Z,101014.13
2022-07-30T09:55:50.400Z,101014.97
2022-07-30T09:58:27.047Z,101019.47
2022-07-30T10:00:59.283Z,101027.50
2022-07-30T10:03:48.620Z,101027.44
2022-07-30T10:06:37.871Z,101020.34
2022-07-30T10:09:29.711Z,101020.28
2022-07-30T10:11:59.954Z,101022.06
2022-07-30T10:14:33.973Z,101027.41
2022-07-30T10:17:10.639Z,101029.00
2022-07-30T10:19:42.903Z,101025.25
2022-07-30T10:22:35.841Z,101025.16
2022-07-30T10:25:30.376Z,101024.06
2022-07-30T10:28:18.723Z,101022.91
2022-07-30T10:30:50.401Z,101023.53
2022-07-30T10:33:35.036Z,101022.44
2022-07-30T10:36:08.988Z,101024.19
2022-07-30T10:38:41.447Z,101023.19
2022-07-30T10:41:22.090Z,101021.28
2022-07-30T10:44:29.055Z,101029.22
2022-07-30T10:47:07.102Z,101022.81
2022-07-30T10:49:41.225Z,101027.25
2022-07-30T10:52:12.467Z,101032.53
2022-07-30T10:54:47.212Z,101030.53
2022-07-30T10:57:32.367Z,101027.66
2022-07-30T11:00:15.309Z,101030.13
2022-07-30T11:03:22.196Z,101028.19
2022-07-30T11:05:51.657Z,101027.31
2022-07-30T11:08:42.962Z,101040.63
2022-07-30T11:12:01.677Z,101033.44
2022-07-30T11:15:06.788Z,101030.72
2022-07-30T11:18:04.397Z,101028.09
2022-07-30T11:20:34.272Z,101043.44
2022-07-30T11:23:40.675Z,101032.63
2022-07-30T11:26:14.166Z,101036.22
2022-07-30T11:28:44.891Z,101045.09
2022-07-30T11:31:57.024Z,101028.69
2022-07-30T11:34:30.724Z,101031.00
2022-07-30T11:37:19.247Z,101038.03
2022-07-30T11:40:12.259Z,101037.00
2022-07-30T11:42:42.806Z,101028.81
2022-07-30T11:45:27.102Z,101029.59
2022-07-30T11:47:57.634Z,101030.38
2022-07-30T11:50:27.193Z,101027.44
2022-07-30T11:52:57.457Z,101026.38
2022-07-30T11:55:28.994Z,101026.28
2022-07-30T11:57:58.089Z,101027.03
2022-07-30T12:00:26.499Z,101019.63
2022-07-30T12:02:54.636Z,101023.09
2022-07-30T12:05:26.935Z,101026.31
2022-07-30T12:07:58.832Z,101026.09
2022-07-30T12:10:28.080Z,101023.09
2022-07-30T12:13:09.005Z,101026.31
2022-07-30T12:15:39.417Z,101022.28
2022-07-30T12:20:59.315Z,101020.59
2022-07-30T12:23:28.226Z,101025.69
2022-07-30T12:25:58.188Z,101015.47
2022-07-30T12:28:27.955Z,101011.66
2022-07-30T12:30:57.449Z,101006.06
2022-07-30T12:33:26.002Z,101012.00
2022-07-30T12:35:55.615Z,101012.59
2022-07-30T12:38:25.837Z,101015.78
2022-07-30T12:41:01.173Z,101018.09
2022-07-30T12:43:48.564Z,101007.56
2022-07-30T12:46:19.007Z,101010.66
2022-07-30T12:48:51.497Z,101010.28
2022-07-30T12:51:20.112Z,101002.72
2022-07-30T12:53:48.881Z,100997.84
2022-07-30T12:56:18.959Z,101005.56
2022-07-30T12:58:47.228Z,100993.53
2022-07-30T13:01:17.188Z,100994.31
2022-07-30T13:03:45.666Z,100994.91
2022-07-30T13:06:19.507Z,100996.28
2022-07-30T13:08:50.167Z,100992.09
2022-07-30T13:11:20.584Z,100996.97
2022-07-30T13:13:50.177Z,100994.72
2022-07-30T13:16:19.092Z,100987.09
2022-07-30T13:18:47.469Z,100984.75
2022-07-30T13:21:15.588Z,100988.75
2022-07-30T13:23:43.454Z,100980.38
2022-07-30T13:26:12.514Z,100987.22
2022-07-30T13:28:42.741Z,100987.63
2022-07-30T13:31:10.646Z,100986.34
2022-07-30T13:33:38.972Z,100980.09
2022-07-30T13:36:07.964Z,100974.22
2022-07-30T13:38:35.987Z,100973.28
2022-07-30T13:41:05.268Z,100972.22
2022-07-30T13:43:33.575Z,100972.19
2022-07-30T13:46:04.067Z,100965.88
2022-07-30T13:48:31.959Z,100975.38
2022-07-30T13:51:01.200Z,100968.53
2022-07-30T13:53:30.483Z,100967.72
2022-07-30T13:55:59.449Z,100964.91
2022-07-30T13:58:27.863Z,100963.78
2022-07-30T14:00:55.772Z,100965.28
2022-07-30T14:03:25.049Z,100961.19
2022-07-30T14:05:53.815Z,100966.56
2022-07-30T14:08:21.767Z,100954.47
2022-07-30T14:10:50.292Z,100951.38
2022-07-30T14:13:19.423Z,100962.66
2022-07-30T14:15:49.596Z,100954.00
2022-07-30T14:18:17.687Z,100959.47
2022-07-30T14:20:48.939Z,100955.81
2022-07-30T14:23:17.389Z,100958.47
2022-07-30T14:25:45.328Z,100956.47
2022-07-30T14:28:13.221Z,100948.69
2022-07-30T14:30:41.290Z,100948.13
2022-07-30T14:33:09.337Z,100954.09
2022-07-30T14:35:37.417Z,100943.06
2022-07-30T14:38:06.982Z,100938.84
2022-07-30T14:40:35.094Z,100937.75
2022-07-30T14:43:02.913Z,100940.38
2022-07-30T14:45:30.814Z,100942.41
2022-07-30T14:47:58.725Z,100937.44
2022-07-30T14:50:26.575Z,100936.44
2022-07-30T14:52:54.410Z,100935.94
2022-07-30T14:55:23.762Z,100927.72
2022-07-30T14:57:51.663Z,100935.81
2022-07-30T15:00:19.635Z,100936.19
2022-07-30T15:02:49.440Z,100925.97
2022-07-30T15:05:17.426Z,100927.59
2022-07-30T15:07:45.669Z,100927.13
2022-07-30T15:10:13.632Z,100926.84
2022-07-30T15:12:45.353Z,100936.44
2022-07-30T15:15:14.068Z,100938.50
2022-07-30T15:17:42.512Z,100948.81
2022-07-30T15:20:11.501Z,100952.06
2022-07-30T15:22:39.703Z,100954.28
2022-07-30T15:25:09.358Z,100957.41
2022-07-30T15:27:37.300Z,100951.78
2022-07-30T15:30:07.438Z,100953.25
2022-07-30T15:32:35.664Z,100959.50
2022-07-30T15:35:04.665Z,100950.56
2022-07-30T15:37:32.558Z,100960.00
2022-07-30T15:40:00.341Z,100958.28
2022-07-30T15:42:28.788Z,100962.59
2022-07-30T15:45:16.200Z,100968.72
2022-07-30T15:47:45.931Z,100954.34
2022-07-30T15:50:15.421Z,100948.78
2022-07-30T15:52:43.489Z,100955.09
2022-07-30T15:55:11.719Z,100946.69
2022-07-30T15:57:40.580Z,100947.22
2022-07-30T16:00:09.479Z,100955.50
2022-07-30T16:02:41.272Z,100957.41
2022-07-30T16:05:14.268Z,100951.81
2022-07-30T16:07:42.691Z,100954.00
2022-07-30T16:10:11.143Z,100954.53
2022-07-30T16:12:39.734Z,100956.34
2022-07-30T16:15:09.408Z,100962.38
2022-07-30T16:17:37.648Z,100956.28
2022-07-30T16:20:06.394Z,100963.13
2022-07-30T16:22:35.574Z,100965.94
2022-07-30T16:25:03.446Z,100967.44
2022-07-30T16:27:34.319Z,100974.44
2022-07-30T16:30:04.176Z,100965.91
2022-07-30T16:32:33.482Z,100971.63
2022-07-30T16:35:01.842Z,100966.38
2022-07-30T16:37:31.326Z,100965.50
2022-07-30T16:40:06.283Z,100961.13
2022-07-30T16:42:37.439Z,100958.91
2022-07-30T16:45:06.034Z,100963.78
2022-07-30T16:47:34.615Z,100960.63
2022-07-30T16:50:02.432Z,100962.75
2022-07-30T16:52:30.355Z,100961.91
2022-07-30T16:54:58.151Z,100958.50
2022-07-30T16:57:28.593Z,100962.34
2022-07-30T16:59:58.746Z,100963.91
2022-07-30T17:02:28.409Z,100959.63
2022-07-30T17:04:56.954Z,100959.31
2022-07-30T17:07:25.795Z,100961.53
2022-07-30T17:09:55.487Z,100955.69
2022-07-30T17:12:28.739Z,100960.63
2022-07-30T17:14:59.170Z,100978.97
2022-07-30T17:17:28.185Z,100967.31
2022-07-30T17:19:58.571Z,100964.84
2022-07-30T17:22:28.584Z,100968.53
2022-07-30T17:24:59.808Z,100971.16
2022-07-30T17:27:31.631Z,100967.56
2022-07-30T17:30:00.465Z,100972.22
2022-07-30T17:32:28.947Z,100970.47
2022-07-30T17:35:01.420Z,100965.50
2022-07-30T17:37:29.404Z,100980.94
2022-07-30T17:40:27.149Z,100970.41
2022-07-30T17:42:49.186Z,100965.44
2022-07-30T17:45:18.267Z,100967.47
2022-07-30T17:47:47.513Z,100970.44
2022-07-30T17:50:15.782Z,100968.00
2022-07-30T17:52:43.786Z,100963.97
2022-07-30T17:55:13.244Z,100967.94
2022-07-30T17:57:41.461Z,100958.66
2022-07-30T18:00:11.862Z,100959.13
2022-07-30T18:02:39.896Z,100956.63
2022-07-30T18:05:08.970Z,100959.59
2022-07-30T18:07:36.890Z,100962.72
2022-07-30T18:10:05.478Z,100960.47
2022-07-30T18:12:34.356Z,100959.84
2022-07-30T18:15:03.026Z,100966.28
2022-07-30T18:17:32.289Z,100965.75
2022-07-30T18:20:00.655Z,100971.47
2022-07-30T18:22:29.407Z,100970.75
2022-07-30T18:25:00.822Z,100971.00
2022-07-30T18:27:28.978Z,100973.16
2022-07-30T18:29:56.844Z,100981.53
2022-07-30T18:32:25.442Z,100985.53
2022-07-30T18:34:54.658Z,100979.38
2022-07-30T18:37:22.694Z,100989.69
2022-07-30T18:39:50.502Z,100983.63
2022-07-30T18:42:18.438Z,100978.44
2022-07-30T18:44:53.975Z,100985.06
2022-07-30T18:47:21.888Z,100982.66
2022-07-30T18:49:50.277Z,100979.44
2022-07-30T18:52:19.530Z,100986.94
2022-07-30T18:54:47.790Z,100983.59
2022-07-30T18:57:15.820Z,100992.81
2022-07-30T18:59:43.851Z,100985.88
2022-07-30T19:02:11.766Z,100993.50
2022-07-30T19:04:39.620Z,100992.03
2022-07-30T19:07:08.459Z,100995.03
2022-07-30T19:09:37.793Z,100989.13
2022-07-30T19:12:06.290Z,100998.59
2022-07-30T19:14:34.677Z,101004.41
2022-07-30T19:17:02.577Z,100993.13
2022-07-30T19:19:30.572Z,101006.09
2022-07-30T19:21:58.774Z,101002.78
2022-07-30T19:24:27.620Z,101001.34
2022-07-30T19:26:57.378Z,101006.09
2022-07-30T19:29:25.608Z,101007.47
2022-07-30T19:31:53.577Z,100998.75
2022-07-30T19:34:21.429Z,101005.31
2022-07-30T19:36:49.518Z,101006.69
2022-07-30T19:39:21.852Z,101000.75
2022-07-30T19:42:02.358Z,101018.28
2022-07-30T19:44:31.721Z,101009.63
2022-07-30T19:46:59.914Z,101012.59
2022-07-30T19:49:29.647Z,101020.09
2022-07-30T19:52:10.647Z,101025.84
2022-07-30T19:54:46.183Z,101027.13
2022-07-30T19:57:14.904Z,101025.63
2022-07-30T19:59:57.872Z,101024.09
2022-07-30T20:02:28.188Z,101022.63
2022-07-30T20:04:56.052Z,101031.00
2022-07-30T20:07:27.523Z,101034.81
2022-07-30T20:09:55.695Z,101032.34
2022-07-30T20:12:24.242Z,101029.88
2022-07-30T20:14:53.708Z,101033.72
2022-07-30T20:17:23.868Z,101025.78
2022-07-30T20:19:59.501Z,101018.84
2022-07-30T20:22:29.040Z,101026.25
2022-07-30T20:24:57.253Z,101022.84
2022-07-30T20:27:36.062Z,101020.34
2022-07-30T20:30:09.090Z,101023.22
2022-07-30T20:32:37.403Z,101032.44
2022-07-30T20:35:07.761Z,101028.13
2022-07-30T20:37:40.360Z,101025.66
2022-07-30T20:40:24.280Z,101029.50
2022-07-30T20:42:54.998Z,101032.41
2022-07-30T20:45:25.348Z,101030.91
2022-07-30T20:48:08.439Z,101038.41
2022-07-30T20:50:46.168Z,101035.13
2022-07-30T20:53:17.366Z,101039.78
2022-07-30T20:55:45.335Z,101038.22
2022-07-30T20:58:16.501Z,101032.16
2022-07-30T21:00:49.586Z,101039.59
2022-07-30T21:03:19.070Z,101025.41
2022-07-30T21:05:52.561Z,101032.84
2022-07-30T21:08:21.340Z,101032.19
2022-07-30T21:10:54.993Z,101030.50
2022-07-30T21:13:25.084Z,101035.19
2022-07-30T21:16:02.970Z,101032.75
2022-07-30T21:18:32.730Z,101031.31
2022-07-30T21:21:01.616Z,101028.06
2022-07-30T21:23:33.419Z,101024.75
2022-07-30T21:26:05.955Z,101021.41
2022-07-30T21:28:38.701Z,101023.41
2022-07-30T21:31:09.629Z,101023.59
2022-07-30T21:33:37.905Z,101018.44
2022-07-30T21:36:10.183Z,101014.13
2022-07-30T21:38:42.204Z,101021.47
2022-07-30T21:41:14.474Z,101030.53
2022-07-30T21:43:44.248Z,101021.84
2022-07-30T21:46:14.701Z,101027.44
2022-07-30T21:48:43.416Z,101025.97
2022-07-30T21:51:12.081Z,101027.13
2022-07-30T21:53:44.662Z,101024.66
2022-07-30T21:56:13.896Z,101023.97
2022-07-30T21:58:42.661Z,101018.72
2022-07-30T22:01:17.132Z,101032.28
2022-07-30T22:04:03.332Z,101027.00
2022-07-30T22:06:37.888Z,101020.88
2022-07-30T22:09:33.219Z,101026.34
2022-07-30T22:12:06.497Z,101023.78
2022-07-30T22:14:38.276Z,101017.59
2022-07-30T22:17:06.199Z,101019.50
2022-07-30T22:19:53.846Z,101008.09
2022-07-30T22:22:27.680Z,101023.47
2022-07-30T22:24:58.149Z,101021.81
2022-07-30T22:27:26.441Z,101021.06
2022-07-30T22:29:55.634Z,101014.91
2022-07-30T22:32:24.250Z,101026.63
2022-07-30T22:34:53.494Z,101024.97
2022-07-30T22:37:22.139Z,101031.44
2022-07-30T22:39:51.812Z,101025.31
2022-07-30T22:42:24.366Z,101025.44
2022-07-30T22:44:53.007Z,101018.38
2022-07-30T22:47:51.022Z,101025.56
2022-07-30T22:50:12.203Z,101026.59
2022-07-30T22:52:50.147Z,101021.25
2022-07-30T22:55:28.274Z,101026.72
2022-07-30T22:57:57.694Z,101021.56
2022-07-30T23:00:27.439Z,101026.16
2022-07-30T23:02:57.339Z,101024.47
2022-07-30T23:05:26.745Z,101024.63
2022-07-30T23:07:54.753Z,101028.38
2022-07-30T23:10:25.636Z,101034.66
2022-07-30T23:12:55.747Z,101033.88
2022-07-30T23:15:23.963Z,101031.22
2022-07-30T23:17:51.802Z,101025.84
2022-07-30T23:20:21.369Z,101029.53
2022-07-30T23:22:51.250Z,101026.91
2022-07-30T23:25:19.705Z,101023.34
2022-07-30T23:27:47.677Z,101028.72
2022-07-30T23:30:16.346Z,101016.28
2022-07-30T23:32:44.488Z,101018.94
2022-07-30T23:35:13.331Z,101017.16
2022-07-30T23:37:49.111Z,101011.91
2022-07-30T23:40:19.608Z,101014.59
2022-07-30T23:42:47.592Z,101012.84
2022-07-30T23:45:15.896Z,101008.47
2022-07-30T23:48:01.470Z,101013.03
2022-07-30T23:50:31.837Z,101012.31
2022-07-30T23:52:59.804Z,101005.34
2022-07-30T23:55:29.678Z,101006.28
2022-07-30T23:57:57.978Z,101000.94
